Terminal Aerodrome Forecast
Issued by NWS Northern Indiana

Home | Current Version | Previous Version | Graphics & Text | Print | Product List | Glossary On
Versions: 1 2 3 4 5 6 7 8 9 10 11 12
000
FTUS43 KIWX 172300
TAFFWA
TAF
KFWA 172339Z 1800/1824 23012KT P6SM FEW050 BKN200
     FM180100 22007KT P6SM SCT040 BKN200
     FM181000 VRB04KT P6SM VCSH BKN050
     FM181500 33007KT P6SM BKN050=

USA.gov is the U.S. government's official web portal to all federal, state and local government web resources and services.